createdAt,value
2022-11-09T00:00:38.206Z,59.40
2022-11-09T00:03:14.650Z,56.20
2022-11-09T00:05:59.685Z,56.30
2022-11-09T00:08:37.483Z,55.70
2022-11-09T00:11:14.643Z,56.90
2022-11-09T00:13:51.058Z,54.50
2022-11-09T00:16:27.131Z,55.00
2022-11-09T00:19:04.113Z,49.70
2022-11-09T00:21:40.068Z,54.60
2022-11-09T00:24:16.636Z,50.00
2022-11-09T00:26:52.475Z,47.70
2022-11-09T00:29:29.411Z,44.10
2022-11-09T00:32:05.529Z,45.00
2022-11-09T00:34:41.483Z,45.60
2022-11-09T00:37:17.493Z,49.70
2022-11-09T00:39:53.810Z,42.90
2022-11-09T00:42:29.662Z,41.10
2022-11-09T00:45:06.038Z,44.70
2022-11-09T00:47:42.228Z,47.20
2022-11-09T00:50:19.190Z,42.10
2022-11-09T00:52:55.014Z,46.70
2022-11-09T00:55:31.138Z,39.80
2022-11-09T00:58:07.145Z,41.60
2022-11-09T01:00:43.445Z,45.80
2022-11-09T01:03:19.731Z,43.80
2022-11-09T01:05:59.935Z,38.40
2022-11-09T01:08:37.583Z,37.80
2022-11-09T01:11:14.946Z,44.10
2022-11-09T01:13:51.000Z,54.10
2022-11-09T01:16:28.492Z,49.70
2022-11-09T01:19:05.422Z,51.30
2022-11-09T01:21:41.290Z,54.10
2022-11-09T01:24:17.353Z,48.00
2022-11-09T01:26:53.138Z,49.70
2022-11-09T01:29:30.599Z,51.90
2022-11-09T01:32:06.838Z,50.60
2022-11-09T01:34:42.830Z,50.40
2022-11-09T01:37:18.801Z,48.20
2022-11-09T01:39:54.632Z,56.20
2022-11-09T01:42:36.418Z,49.00
2022-11-09T01:45:32.907Z,46.30
2022-11-09T01:48:16.788Z,52.50
2022-11-09T01:50:59.579Z,47.70
2022-11-09T01:53:42.994Z,47.90
2022-11-09T01:56:20.932Z,49.60
2022-11-09T01:59:02.654Z,46.30
2022-11-09T02:01:40.035Z,47.70
2022-11-09T02:04:22.513Z,48.50
2022-11-09T02:07:02.755Z,49.00
2022-11-09T02:09:48.548Z,47.00
2022-11-09T02:12:27.123Z,50.50
2022-11-09T02:15:07.258Z,45.10
2022-11-09T02:17:44.973Z,46.70
2022-11-09T02:20:23.002Z,44.10
2022-11-09T02:23:00.303Z,44.00
2022-11-09T02:25:36.640Z,46.60
2022-11-09T02:28:13.178Z,45.80
2022-11-09T02:30:55.983Z,48.20
2022-11-09T02:33:41.073Z,46.90
2022-11-09T02:36:17.068Z,39.80
2022-11-09T02:38:55.568Z,38.10
2022-11-09T02:41:33.682Z,40.30
2022-11-09T02:44:10.447Z,41.00
2022-11-09T02:46:46.416Z,38.20
2022-11-09T02:49:22.982Z,39.20
2022-11-09T02:51:58.939Z,39.70
2022-11-09T02:54:34.860Z,43.80
2022-11-09T02:57:11.068Z,39.70
2022-11-09T02:59:47.285Z,44.80
2022-11-09T03:02:23.613Z,40.10
2022-11-09T03:05:00.097Z,44.80
2022-11-09T03:07:35.976Z,43.00
2022-11-09T03:10:13.430Z,41.50
2022-11-09T03:12:50.386Z,44.50
2022-11-09T03:15:26.171Z,38.00
2022-11-09T03:18:02.146Z,37.90
2022-11-09T03:20:37.934Z,38.40
2022-11-09T03:23:14.087Z,39.50
2022-11-09T03:25:50.093Z,41.40
2022-11-09T03:28:26.274Z,41.80
2022-11-09T03:31:02.411Z,39.70
2022-11-09T03:33:39.677Z,41.90
2022-11-09T03:36:16.425Z,40.30
2022-11-09T03:38:52.379Z,37.90
2022-11-09T03:41:28.317Z,41.00
2022-11-09T03:44:04.911Z,37.10
2022-11-09T03:46:40.695Z,45.20
2022-11-09T03:49:16.655Z,41.20
2022-11-09T03:51:52.725Z,39.40
2022-11-09T03:54:28.541Z,37.50
2022-11-09T03:57:04.420Z,40.60
2022-11-09T03:59:40.197Z,37.70
2022-11-09T04:02:16.020Z,37.70
2022-11-09T04:04:51.876Z,40.60
2022-11-09T04:07:27.790Z,40.40
2022-11-09T04:10:03.753Z,41.10
2022-11-09T04:12:39.574Z,40.00
2022-11-09T04:15:17.465Z,37.40
2022-11-09T04:18:02.812Z,38.40
2022-11-09T04:20:38.768Z,39.70
2022-11-09T04:23:16.839Z,38.10
2022-11-09T04:25:52.927Z,42.70
2022-11-09T04:28:28.680Z,41.40
2022-11-09T04:31:07.532Z,35.20
2022-11-09T04:33:43.360Z,36.40
2022-11-09T04:36:19.729Z,40.70
2022-11-09T04:38:55.670Z,37.30
2022-11-09T04:41:31.643Z,40.00
2022-11-09T04:44:07.901Z,40.30
2022-11-09T04:46:43.931Z,46.70
2022-11-09T04:49:19.821Z,45.10
2022-11-09T04:51:55.697Z,44.70
2022-11-09T04:54:31.460Z,45.60
2022-11-09T04:57:07.408Z,49.70
2022-11-09T04:59:43.339Z,47.00
2022-11-09T05:02:19.192Z,43.40
2022-11-09T05:04:55.153Z,46.20
2022-11-09T05:07:30.952Z,42.50
2022-11-09T05:10:07.954Z,56.80
2022-11-09T05:12:45.966Z,62.70
2022-11-09T05:15:22.206Z,54.90
2022-11-09T05:17:58.629Z,49.40
2022-11-09T05:20:35.390Z,44.60
2022-11-09T05:23:30.016Z,45.40
2022-11-09T05:26:06.035Z,44.90
2022-11-09T05:28:42.081Z,46.70
2022-11-09T05:31:18.355Z,41.80
2022-11-09T05:33:56.339Z,43.20
2022-11-09T05:36:34.359Z,43.20
2022-11-09T05:39:10.572Z,37.70
2022-11-09T05:41:46.408Z,44.30
2022-11-09T05:44:22.348Z,45.60
2022-11-09T05:46:58.290Z,44.30
2022-11-09T05:49:34.260Z,41.50
2022-11-09T05:52:10.221Z,47.90
2022-11-09T05:54:46.344Z,49.60
2022-11-09T05:57:22.117Z,43.30
2022-11-09T05:59:58.181Z,51.50
2022-11-09T06:02:36.301Z,51.90
2022-11-09T06:05:13.683Z,56.50
2022-11-09T06:07:49.734Z,43.90
2022-11-09T06:10:25.616Z,48.50
2022-11-09T06:13:02.558Z,47.30
2022-11-09T06:15:38.618Z,46.40
2022-11-09T06:18:14.560Z,59.10
2022-11-09T06:20:54.593Z,44.90
2022-11-09T06:23:30.815Z,51.50
2022-11-09T06:26:10.319Z,54.60
2022-11-09T06:28:46.342Z,44.90
2022-11-09T06:31:22.740Z,56.90
2022-11-09T06:33:58.640Z,50.60
2022-11-09T06:36:35.283Z,48.40
2022-11-09T06:39:11.620Z,48.00
2022-11-09T06:41:47.887Z,53.60
2022-11-09T06:44:23.910Z,49.90
2022-11-09T06:46:59.660Z,43.90
2022-11-09T06:49:35.444Z,41.10
2022-11-09T06:52:11.843Z,39.60
2022-11-09T06:54:47.800Z,39.20
2022-11-09T06:57:23.778Z,35.20
2022-11-09T07:00:03.542Z,37.50
2022-11-09T07:02:40.277Z,33.50
2022-11-09T07:05:17.203Z,38.30
2022-11-09T07:07:53.207Z,35.60
2022-11-09T07:10:29.018Z,34.60
2022-11-09T07:13:04.928Z,35.70
2022-11-09T07:15:42.226Z,34.70
2022-11-09T07:18:18.867Z,36.70
2022-11-09T07:20:54.739Z,34.80
2022-11-09T07:23:30.823Z,32.00
2022-11-09T07:26:07.067Z,37.50
2022-11-09T07:28:43.735Z,36.50
2022-11-09T07:31:19.619Z,39.10
2022-11-09T07:33:58.479Z,38.70
2022-11-09T07:36:36.832Z,34.90
2022-11-09T07:39:13.191Z,35.30
2022-11-09T07:41:51.380Z,34.60
2022-11-09T07:44:27.350Z,32.70
2022-11-09T07:47:03.204Z,30.90
2022-11-09T07:49:39.063Z,29.70
2022-11-09T07:52:15.219Z,30.10
2022-11-09T07:54:52.504Z,31.40
2022-11-09T07:57:28.542Z,32.80
2022-11-09T08:00:09.025Z,29.50
2022-11-09T08:02:51.362Z,28.20
2022-11-09T08:05:28.117Z,24.50
2022-11-09T08:08:07.660Z,26.00
2022-11-09T08:10:44.648Z,25.00
2022-11-09T08:13:21.488Z,21.20
2022-11-09T08:15:57.760Z,24.20
2022-11-09T08:18:33.911Z,26.30
2022-11-09T08:21:10.654Z,26.60
2022-11-09T08:23:47.150Z,25.90
2022-11-09T08:26:22.883Z,26.40
2022-11-09T08:28:58.667Z,30.50
2022-11-09T08:31:34.725Z,27.10
2022-11-09T08:34:14.020Z,32.30
2022-11-09T08:36:49.955Z,43.40
2022-11-09T08:39:26.180Z,45.90
2022-11-09T08:42:02.241Z,35.20
2022-11-09T08:44:38.299Z,35.10
2022-11-09T08:47:14.257Z,36.30
2022-11-09T08:49:50.097Z,32.60
2022-11-09T08:52:26.046Z,34.00
2022-11-09T08:55:02.219Z,43.90
2022-11-09T08:57:38.392Z,39.30
2022-11-09T09:00:18.227Z,38.80
2022-11-09T09:02:54.390Z,33.00
2022-11-09T09:05:30.359Z,32.00
2022-11-09T09:08:11.180Z,34.30
2022-11-09T09:10:47.379Z,33.70
2022-11-09T09:13:23.714Z,33.70
2022-11-09T09:15:59.733Z,35.40
2022-11-09T09:18:35.630Z,34.70
2022-11-09T09:21:14.181Z,35.10
2022-11-09T09:23:52.074Z,31.30
2022-11-09T09:26:27.988Z,35.50
2022-11-09T09:29:04.153Z,30.50
2022-11-09T09:31:40.086Z,33.70
2022-11-09T09:34:16.010Z,43.80
2022-11-09T09:36:53.025Z,50.60
2022-11-09T09:39:29.407Z,47.80
2022-11-09T09:42:10.139Z,44.20
2022-11-09T09:44:54.449Z,43.30
2022-11-09T09:47:47.659Z,44.50
2022-11-09T09:50:28.181Z,41.40
2022-11-09T09:53:24.363Z,43.60
2022-11-09T09:56:10.881Z,38.30
2022-11-09T09:58:54.049Z,41.30
2022-11-09T10:01:40.780Z,43.00
2022-11-09T10:04:25.491Z,42.10
2022-11-09T10:07:16.137Z,41.50
2022-11-09T10:10:31.484Z,41.70
2022-11-09T10:14:00.984Z,46.30
2022-11-09T10:16:51.238Z,47.90
2022-11-09T10:19:47.565Z,51.20
2022-11-09T10:22:39.318Z,48.50
2022-11-09T10:28:26.778Z,50.20
2022-11-09T10:31:13.744Z,45.80
2022-11-09T10:33:54.527Z,46.60
2022-11-09T10:36:42.898Z,47.40
2022-11-09T10:39:22.482Z,48.40
2022-11-09T10:42:17.816Z,53.70
2022-11-09T10:45:34.992Z,48.70
2022-11-09T10:48:40.061Z,51.00
2022-11-09T10:51:47.549Z,48.70
2022-11-09T10:54:42.334Z,45.30
2022-11-09T10:57:37.054Z,49.90
2022-11-09T11:00:32.412Z,44.90
2022-11-09T11:03:29.512Z,42.80
2022-11-09T11:06:31.844Z,41.50
2022-11-09T11:09:29.405Z,41.90
2022-11-09T11:12:24.397Z,39.10
2022-11-09T11:15:34.150Z,40.90
2022-11-09T11:18:37.515Z,34.50
2022-11-09T11:21:33.429Z,40.00
2022-11-09T11:24:28.226Z,31.70
2022-11-09T11:27:33.238Z,29.80
2022-11-09T11:30:37.703Z,28.20
2022-11-09T11:33:34.682Z,31.50
2022-11-09T11:36:49.561Z,26.10
2022-11-09T11:40:03.618Z,25.90
2022-11-09T11:43:27.205Z,28.20
2022-11-09T11:46:41.507Z,29.50
2022-11-09T11:50:10.154Z,25.60
2022-11-09T11:53:22.839Z,21.70
2022-11-09T11:56:30.949Z,23.10
2022-11-09T12:00:02.330Z,26.60
2022-11-09T12:03:58.971Z,20.10
2022-11-09T12:07:27.250Z,19.10
2022-11-09T12:11:02.438Z,15.50
2022-11-09T12:14:17.960Z,17.00
2022-11-09T12:17:23.135Z,17.00
2022-11-09T12:20:34.248Z,20.60
2022-11-09T12:23:54.755Z,16.60
2022-11-09T12:30:47.175Z,16.10
2022-11-09T12:33:56.121Z,19.30
2022-11-09T12:37:00.549Z,20.50
2022-11-09T12:40:02.261Z,22.50
2022-11-09T12:43:12.240Z,21.30
2022-11-09T12:46:11.291Z,22.60
2022-11-09T12:49:25.965Z,21.00
2022-11-09T12:52:27.185Z,22.80
2022-11-09T12:55:30.375Z,22.20
2022-11-09T12:58:32.409Z,22.40
2022-11-09T13:01:56.598Z,20.00
2022-11-09T13:05:04.128Z,23.20
2022-11-09T13:08:02.505Z,22.20
2022-11-09T13:11:26.852Z,20.50
2022-11-09T13:14:41.889Z,18.70
2022-11-09T13:18:26.946Z,20.50
2022-11-09T13:21:42.727Z,20.70
2022-11-09T13:25:03.063Z,17.80
2022-11-09T13:27:57.817Z,19.10
2022-11-09T13:30:52.510Z,18.50
2022-11-09T13:33:46.790Z,20.00
2022-11-09T13:36:41.463Z,17.80
2022-11-09T13:39:41.826Z,20.40
2022-11-09T13:42:39.274Z,19.50
2022-11-09T13:45:40.236Z,16.60
2022-11-09T13:48:45.396Z,21.20
2022-11-09T13:51:49.926Z,18.50
2022-11-09T13:54:54.569Z,20.30
2022-11-09T13:57:49.967Z,19.80
2022-11-09T14:00:49.563Z,21.10
2022-11-09T14:03:51.585Z,20.40
2022-11-09T14:06:46.238Z,19.70
2022-11-09T14:09:57.674Z,20.40
2022-11-09T14:13:16.654Z,24.10
2022-11-09T14:16:26.688Z,22.00
2022-11-09T14:19:37.776Z,19.90
2022-11-09T14:22:37.403Z,21.70
2022-11-09T14:25:37.331Z,25.30
2022-11-09T14:28:34.949Z,29.90
2022-11-09T14:31:33.395Z,27.50
2022-11-09T14:34:29.653Z,21.00
2022-11-09T14:37:25.330Z,26.80
2022-11-09T14:40:31.107Z,25.40
2022-11-09T14:43:37.009Z,24.30
2022-11-09T14:46:34.021Z,23.20
2022-11-09T14:49:30.362Z,26.00
2022-11-09T14:52:32.153Z,25.60
2022-11-09T14:55:29.558Z,23.30
2022-11-09T14:58:25.951Z,51.00
2022-11-09T15:01:30.859Z,28.20
2022-11-09T15:04:27.249Z,30.80
2022-11-09T15:07:26.273Z,29.20
2022-11-09T15:10:29.789Z,28.80
2022-11-09T15:13:36.158Z,42.10
2022-11-09T15:16:34.462Z,34.80
2022-11-09T15:19:35.126Z,30.30
2022-11-09T15:22:54.555Z,32.50
2022-11-09T15:26:00.324Z,31.00
2022-11-09T15:28:55.279Z,27.60
2022-11-09T15:32:22.084Z,27.50
2022-11-09T15:35:23.334Z,34.10
2022-11-09T15:38:39.078Z,33.30
2022-11-09T15:41:34.193Z,27.20
2022-11-09T15:44:28.683Z,30.40
2022-11-09T15:47:33.341Z,32.30
2022-11-09T15:50:29.907Z,26.90
2022-11-09T15:53:24.810Z,26.00
2022-11-09T15:56:25.200Z,27.60
2022-11-09T15:59:28.345Z,30.10
2022-11-09T16:02:23.493Z,29.10
2022-11-09T16:05:20.376Z,29.10
2022-11-09T16:08:15.625Z,27.10
2022-11-09T16:11:12.432Z,30.10
2022-11-09T16:14:07.517Z,33.60
2022-11-09T16:17:02.263Z,30.60
2022-11-09T16:19:58.383Z,63.80
2022-11-09T16:22:52.667Z,41.00
2022-11-09T16:25:47.207Z,33.70
2022-11-09T16:28:43.225Z,29.80
2022-11-09T16:31:51.568Z,33.70
2022-11-09T16:34:53.509Z,31.40
2022-11-09T16:38:04.906Z,26.40
2022-11-09T16:41:02.075Z,34.20
2022-11-09T16:43:59.233Z,28.70
2022-11-09T16:46:54.509Z,37.30
2022-11-09T16:49:49.295Z,31.30
2022-11-09T16:52:43.776Z,34.50
2022-11-09T16:55:38.417Z,33.00
2022-11-09T16:58:33.044Z,38.10
2022-11-09T17:01:31.669Z,60.60
2022-11-09T17:04:29.807Z,60.30
2022-11-09T17:07:25.494Z,82.90
2022-11-09T17:10:21.398Z,56.20
2022-11-09T17:13:18.037Z,38.20
2022-11-09T17:16:20.349Z,37.60
2022-11-09T17:19:15.525Z,34.70
2022-11-09T17:22:10.259Z,37.80
2022-11-09T17:25:05.607Z,36.90
2022-11-09T17:28:00.143Z,101.70
2022-11-09T17:30:55.867Z,50.40
2022-11-09T17:33:50.652Z,42.00
2022-11-09T17:39:59.549Z,47.20
2022-11-09T17:42:54.333Z,50.90
2022-11-09T17:45:49.113Z,40.70
2022-11-09T17:48:47.577Z,54.90
2022-11-09T17:51:42.378Z,46.50
2022-11-09T17:54:37.512Z,54.00
2022-11-09T17:57:32.688Z,43.70
2022-11-09T18:00:28.092Z,39.60
2022-11-09T18:03:23.097Z,46.30
2022-11-09T18:06:24.266Z,45.70
2022-11-09T18:09:40.954Z,41.70
2022-11-09T18:12:35.464Z,41.60
2022-11-09T18:15:30.135Z,40.80
2022-11-09T18:18:25.561Z,42.80
2022-11-09T18:21:23.545Z,49.60
2022-11-09T18:24:19.287Z,50.70
2022-11-09T18:27:14.190Z,49.90
2022-11-09T18:30:11.959Z,46.40
2022-11-09T18:33:06.945Z,41.60
2022-11-09T18:36:09.817Z,43.60
2022-11-09T18:39:16.575Z,48.70
2022-11-09T18:42:11.149Z,43.90
2022-11-09T18:45:07.164Z,46.30
2022-11-09T18:48:01.951Z,43.60
2022-11-09T18:50:59.323Z,43.20
2022-11-09T18:53:54.154Z,43.20
2022-11-09T18:56:49.169Z,45.00
2022-11-09T18:59:44.137Z,44.00
2022-11-09T19:02:39.747Z,40.80
2022-11-09T19:05:36.886Z,44.70
2022-11-09T19:08:54.622Z,42.70
2022-11-09T19:11:49.283Z,48.40
2022-11-09T19:14:44.880Z,48.20
2022-11-09T19:17:40.387Z,47.80
2022-11-09T19:20:34.995Z,43.70
2022-11-09T19:23:34.128Z,43.70
2022-11-09T19:26:30.347Z,50.70
2022-11-09T19:29:25.610Z,51.80
2022-11-09T19:32:20.146Z,50.00
2022-11-09T19:35:18.277Z,48.70
2022-11-09T19:38:17.017Z,133.00
2022-11-09T19:41:12.356Z,78.80
2022-11-09T19:44:08.743Z,59.30
2022-11-09T19:47:03.690Z,55.10
2022-11-09T19:49:58.817Z,56.30
2022-11-09T19:52:53.711Z,49.90
2022-11-09T19:55:49.164Z,50.10
2022-11-09T19:58:43.725Z,62.00
2022-11-09T20:01:40.329Z,46.70
2022-11-09T20:04:35.203Z,47.50
2022-11-09T20:07:34.187Z,50.50
2022-11-09T20:10:28.971Z,44.50
2022-11-09T20:13:26.218Z,56.30
2022-11-09T20:16:21.819Z,57.10
2022-11-09T20:19:17.933Z,50.20
2022-11-09T20:22:13.637Z,52.10
2022-11-09T20:25:09.989Z,51.70
2022-11-09T20:28:09.605Z,50.10
2022-11-09T20:31:11.251Z,51.10
2022-11-09T20:34:06.214Z,51.60
2022-11-09T20:37:01.107Z,47.30
2022-11-09T20:40:01.123Z,59.80
2022-11-09T20:42:58.118Z,49.20
2022-11-09T20:45:53.914Z,50.80
2022-11-09T20:48:54.503Z,53.60
2022-11-09T20:51:50.567Z,54.10
2022-11-09T20:54:46.635Z,47.90
2022-11-09T20:57:41.638Z,46.10
2022-11-09T21:00:38.591Z,50.00
2022-11-09T21:03:35.827Z,54.10
2022-11-09T21:06:32.325Z,50.30
2022-11-09T21:09:28.076Z,52.90
2022-11-09T21:12:22.658Z,54.10
2022-11-09T21:15:17.955Z,51.10
2022-11-09T21:18:13.364Z,48.40
2022-11-09T21:21:14.405Z,51.50
2022-11-09T21:24:28.659Z,51.30
2022-11-09T21:27:45.426Z,61.70
2022-11-09T21:30:42.435Z,57.70
2022-11-09T21:33:37.767Z,64.00
2022-11-09T21:36:32.488Z,75.10
2022-11-09T21:39:27.326Z,63.10
2022-11-09T21:42:21.681Z,65.60
2022-11-09T21:45:16.708Z,74.60
2022-11-09T21:48:12.141Z,74.90
2022-11-09T21:51:07.156Z,67.10
2022-11-09T21:54:02.680Z,58.10
2022-11-09T21:56:57.755Z,62.00
2022-11-09T21:59:52.388Z,57.30
2022-11-09T22:02:46.755Z,65.30
2022-11-09T22:05:43.426Z,60.30
2022-11-09T22:08:38.919Z,71.30
2022-11-09T22:11:51.295Z,60.90
2022-11-09T22:15:04.375Z,61.30
2022-11-09T22:18:00.395Z,63.20
2022-11-09T22:20:57.562Z,66.50
2022-11-09T22:23:52.643Z,63.00
2022-11-09T22:26:47.426Z,65.30
2022-11-09T22:29:42.167Z,62.10
2022-11-09T22:32:36.869Z,68.60
2022-11-09T22:35:31.756Z,66.60
2022-11-09T22:38:26.943Z,57.20
2022-11-09T22:41:24.694Z,59.50
2022-11-09T22:44:19.480Z,61.60
2022-11-09T22:47:14.096Z,63.90
2022-11-09T22:50:10.900Z,68.00
2022-11-09T22:53:05.380Z,55.70
2022-11-09T22:56:02.767Z,61.10
2022-11-09T22:58:57.334Z,58.00
2022-11-09T23:01:51.808Z,53.70
2022-11-09T23:04:46.293Z,57.40
2022-11-09T23:07:40.910Z,67.00
2022-11-09T23:10:35.821Z,55.10
2022-11-09T23:13:31.468Z,57.90
2022-11-09T23:16:27.467Z,58.90
2022-11-09T23:19:22.340Z,74.20
2022-11-09T23:22:17.074Z,64.00
2022-11-09T23:25:31.659Z,60.00
2022-11-09T23:28:26.427Z,63.30
2022-11-09T23:31:25.094Z,62.40
2022-11-09T23:34:19.879Z,62.40
2022-11-09T23:37:14.394Z,61.00
2022-11-09T23:40:11.979Z,63.70
2022-11-09T23:43:11.017Z,63.90
2022-11-09T23:46:09.851Z,56.10
2022-11-09T23:49:05.209Z,69.90
2022-11-09T23:51:59.578Z,62.10
2022-11-09T23:54:54.108Z,62.50
2022-11-09T23:57:48.853Z,62.60
